createdAt,value
2023-02-03T00:00:11.453Z,3.30
2023-02-03T00:05:11.377Z,3.00
2023-02-03T00:10:11.353Z,3.40
2023-02-03T00:15:11.326Z,3.50
2023-02-03T00:20:11.570Z,3.10
2023-02-03T00:25:11.433Z,3.40
2023-02-03T00:30:11.063Z,3.30
2023-02-03T00:35:10.997Z,3.70
2023-02-03T00:40:10.911Z,3.70
2023-02-03T00:45:10.884Z,3.40
2023-02-03T00:50:10.792Z,3.50
2023-02-03T00:55:10.722Z,3.80
2023-02-03T01:00:10.685Z,3.70
2023-02-03T01:05:10.599Z,3.40
2023-02-03T01:10:10.577Z,3.00
2023-02-03T01:15:10.481Z,2.90
2023-02-03T01:20:10.399Z,2.50
2023-02-03T01:25:10.395Z,2.10
2023-02-03T01:30:10.354Z,2.50
2023-02-03T01:35:10.230Z,2.40
2023-02-03T01:40:10.152Z,2.40
2023-02-03T01:45:12.451Z,2.00
2023-02-03T01:50:09.984Z,1.80
2023-02-03T01:55:09.993Z,1.50
2023-02-03T02:00:09.940Z,2.10
2023-02-03T02:05:09.820Z,1.50
2023-02-03T02:10:09.779Z,1.30
2023-02-03T02:15:09.670Z,1.20
2023-02-03T02:20:09.613Z,1.40
2023-02-03T02:25:09.553Z,1.40
2023-02-03T02:30:09.498Z,1.30
2023-02-03T02:35:09.403Z,1.60
2023-02-03T02:40:09.350Z,1.80
2023-02-03T02:45:09.313Z,1.60
2023-02-03T02:50:09.200Z,1.70
2023-02-03T02:55:09.202Z,1.80
2023-02-03T03:00:09.130Z,1.70
2023-02-03T03:05:09.223Z,2.10
2023-02-03T03:10:09.019Z,1.70
2023-02-03T03:15:08.904Z,1.80
2023-02-03T03:20:08.815Z,1.50
2023-02-03T03:25:08.777Z,1.70
2023-02-03T03:30:08.757Z,1.90
2023-02-03T03:35:08.657Z,2.10
2023-02-03T03:40:08.570Z,2.10
2023-02-03T03:45:08.586Z,2.50
2023-02-03T03:50:08.423Z,2.30
2023-02-03T03:55:08.432Z,2.00
2023-02-03T04:00:08.305Z,2.20
2023-02-03T04:05:08.233Z,2.20
2023-02-03T04:10:08.304Z,2.30
2023-02-03T04:15:08.129Z,2.00
2023-02-03T04:20:08.079Z,2.20
2023-02-03T04:25:08.017Z,2.90
2023-02-03T04:30:07.932Z,3.70
2023-02-03T04:35:07.829Z,3.50
2023-02-03T04:40:07.787Z,3.20
2023-02-03T04:45:07.700Z,3.30
2023-02-03T04:50:07.725Z,3.80
2023-02-03T04:55:07.576Z,4.20
2023-02-03T05:00:07.505Z,4.30
2023-02-03T05:05:07.449Z,4.80
2023-02-03T05:10:07.437Z,4.60
2023-02-03T05:15:07.331Z,4.70
2023-02-03T05:20:07.221Z,4.50
2023-02-03T05:25:07.167Z,4.20
2023-02-03T05:30:07.133Z,4.80
2023-02-03T05:35:07.072Z,4.90
2023-02-03T05:40:06.996Z,5.20
2023-02-03T05:45:07.004Z,5.30
2023-02-03T05:50:06.835Z,5.30
2023-02-03T05:55:06.799Z,5.20
2023-02-03T06:00:06.700Z,5.20
2023-02-03T06:05:06.675Z,5.10
2023-02-03T06:10:06.591Z,5.00
2023-02-03T06:15:06.523Z,5.40
2023-02-03T06:20:06.452Z,5.30
2023-02-03T06:25:06.392Z,5.50
2023-02-03T06:30:06.321Z,5.30
2023-02-03T06:35:06.265Z,5.00
2023-02-03T06:40:06.189Z,4.90
2023-02-03T06:45:06.104Z,4.40
2023-02-03T06:50:06.073Z,4.60
2023-02-03T06:55:05.984Z,4.40
2023-02-03T07:00:05.914Z,4.50
2023-02-03T07:05:05.860Z,4.80
2023-02-03T07:10:05.791Z,4.70
2023-02-03T07:15:05.715Z,5.10
2023-02-03T07:20:05.695Z,4.60
2023-02-03T07:25:05.642Z,4.30
2023-02-03T07:30:05.627Z,4.50
2023-02-03T07:35:05.463Z,4.10
2023-02-03T07:40:05.387Z,3.50
2023-02-03T07:45:05.319Z,3.40
2023-02-03T07:50:05.372Z,3.10
2023-02-03T07:55:05.241Z,3.00
2023-02-03T08:00:06.080Z,2.90
2023-02-03T08:05:05.101Z,2.90
2023-02-03T08:10:05.021Z,2.90
2023-02-03T08:15:04.930Z,3.00
2023-02-03T08:20:04.882Z,2.60
2023-02-03T08:25:05.108Z,2.50
2023-02-03T08:30:04.750Z,2.50
2023-02-03T08:35:04.673Z,2.50
2023-02-03T08:40:04.600Z,2.40
2023-02-03T08:45:05.255Z,2.30
2023-02-03T08:50:04.462Z,2.50
2023-02-03T08:55:04.371Z,2.30
2023-02-03T09:00:04.292Z,2.60
2023-02-03T09:05:04.280Z,2.50
2023-02-03T09:10:04.232Z,2.80
2023-02-03T09:15:04.153Z,2.90
2023-02-03T09:20:04.131Z,3.00
2023-02-03T09:25:04.010Z,2.90
2023-02-03T09:30:03.916Z,2.90
2023-02-03T09:35:03.872Z,3.20
2023-02-03T09:40:03.793Z,3.20
2023-02-03T09:45:04.725Z,3.00
2023-02-03T09:50:03.642Z,3.00
2023-02-03T09:55:03.591Z,3.30
2023-02-03T10:00:03.518Z,3.60
2023-02-03T10:05:03.465Z,3.70
2023-02-03T10:10:03.394Z,3.50
2023-02-03T10:15:03.323Z,3.10
2023-02-03T10:20:03.237Z,3.10
2023-02-03T10:25:03.183Z,3.00
2023-02-03T10:30:03.096Z,3.80
2023-02-03T10:35:03.021Z,3.30
2023-02-03T10:40:02.989Z,2.90
2023-02-03T10:45:03.096Z,2.80
2023-02-03T10:50:02.825Z,2.70
2023-02-03T10:55:02.828Z,3.00
2023-02-03T11:00:02.703Z,2.70
2023-02-03T11:05:02.682Z,2.70
2023-02-03T11:10:02.588Z,2.40
2023-02-03T11:15:02.509Z,2.10
2023-02-03T11:20:03.405Z,2.10
2023-02-03T11:25:02.383Z,2.00
2023-02-03T11:30:02.292Z,2.00
2023-02-03T11:35:02.245Z,2.30
2023-02-03T11:40:02.163Z,2.20
2023-02-03T11:45:02.118Z,2.10
2023-02-03T11:50:02.055Z,1.80
2023-02-03T11:55:02.040Z,1.70
2023-02-03T12:00:02.119Z,1.60
2023-02-03T12:05:01.868Z,1.80
2023-02-03T12:10:01.789Z,1.80
2023-02-03T12:15:01.758Z,1.70
2023-02-03T12:20:01.635Z,1.40
2023-02-03T12:25:01.605Z,1.20
2023-02-03T12:30:01.562Z,1.30
2023-02-03T12:35:01.528Z,0.90
2023-02-03T12:40:01.403Z,0.90
2023-02-03T12:45:01.384Z,0.90
2023-02-03T12:50:01.255Z,1.00
2023-02-03T12:55:01.197Z,0.90
2023-02-03T13:00:01.136Z,0.90
2023-02-03T13:05:01.106Z,1.00
2023-02-03T13:10:01.014Z,1.10
2023-02-03T13:15:00.970Z,1.10
2023-02-03T13:20:00.927Z,1.60
2023-02-03T13:25:00.854Z,0.90
2023-02-03T13:30:00.747Z,0.90
2023-02-03T13:35:00.747Z,1.10
2023-02-03T13:40:00.610Z,1.20
2023-02-03T13:45:00.615Z,1.30
2023-02-03T13:50:00.457Z,1.10
2023-02-03T13:55:00.447Z,1.40
2023-02-03T14:00:00.513Z,1.60
2023-02-03T14:05:02.838Z,1.70
2023-02-03T14:10:02.655Z,1.90
2023-02-03T14:15:04.168Z,1.70
2023-02-03T14:20:00.141Z,1.80
2023-02-03T14:25:00.012Z,2.70
2023-02-03T14:29:59.926Z,2.20
2023-02-03T14:34:59.940Z,2.10
2023-02-03T14:39:59.790Z,2.40
2023-02-03T14:44:59.722Z,2.80
2023-02-03T14:49:59.731Z,2.10
2023-02-03T14:54:59.588Z,2.60
2023-02-03T14:59:59.534Z,2.20
2023-02-03T15:04:59.489Z,2.20
2023-02-03T15:09:59.408Z,3.70
2023-02-03T15:14:59.316Z,2.60
2023-02-03T15:19:59.267Z,2.70
2023-02-03T15:24:59.221Z,2.60
2023-02-03T15:29:59.232Z,2.60
2023-02-03T15:34:59.091Z,2.50
2023-02-03T15:39:58.994Z,3.00
2023-02-03T15:44:59.047Z,2.80
2023-02-03T15:49:58.878Z,2.40
2023-02-03T15:54:58.951Z,2.50
2023-02-03T15:59:58.771Z,2.40
2023-02-03T16:04:58.662Z,2.50
2023-02-03T16:09:58.605Z,1.90
2023-02-03T16:14:58.555Z,1.90
2023-02-03T16:19:58.473Z,1.90
2023-02-03T16:24:58.437Z,2.40
2023-02-03T16:29:58.406Z,1.70
2023-02-03T16:34:58.410Z,1.90
2023-02-03T16:39:58.461Z,2.00
2023-02-03T16:44:58.227Z,2.50
2023-02-03T16:49:58.070Z,2.20
2023-02-03T16:54:58.070Z,2.00
2023-02-03T16:59:58.205Z,2.10
2023-02-03T17:04:57.866Z,2.20
2023-02-03T17:09:57.965Z,2.00
2023-02-03T17:14:58.608Z,2.20
2023-02-03T17:19:58.683Z,2.30
2023-02-03T17:24:57.634Z,2.90
2023-02-03T17:29:57.540Z,2.40
2023-02-03T17:34:57.439Z,2.20
2023-02-03T17:53:38.923Z,2.60
2023-02-03T17:58:38.885Z,2.60
2023-02-03T18:03:38.789Z,2.40
2023-02-03T18:08:38.758Z,2.30
2023-02-03T18:13:38.654Z,2.20
2023-02-03T18:18:38.631Z,2.40
2023-02-03T18:23:38.534Z,2.60
2023-02-03T18:28:38.460Z,2.50
2023-02-03T18:33:38.402Z,2.10
2023-02-03T18:38:38.390Z,2.10
2023-02-03T18:43:38.288Z,2.00
2023-02-03T18:48:38.211Z,2.00
2023-02-03T18:53:38.128Z,2.20
2023-02-03T18:58:38.093Z,2.20
2023-02-03T19:03:38.775Z,1.90
2023-02-03T19:08:37.983Z,2.50
2023-02-03T19:13:38.201Z,2.10
2023-02-03T19:18:37.865Z,2.50
2023-02-03T19:23:37.903Z,1.90
2023-02-03T19:28:37.773Z,2.40
2023-02-03T19:33:37.681Z,2.10
2023-02-03T19:38:37.897Z,2.60
2023-02-03T19:43:37.617Z,2.30
2023-02-03T19:48:37.499Z,2.10
2023-02-03T19:53:37.436Z,1.90
2023-02-03T19:58:37.269Z,2.30
2023-02-03T20:03:37.266Z,2.60
2023-02-03T20:08:37.231Z,2.40
2023-02-03T20:13:37.162Z,2.10
2023-02-03T20:18:37.119Z,2.10
2023-02-03T20:23:36.977Z,2.20
2023-02-03T20:28:36.957Z,2.30
2023-02-03T20:33:37.019Z,2.10
2023-02-03T20:38:36.854Z,2.10
2023-02-03T20:43:36.675Z,1.90
2023-02-03T20:48:36.935Z,2.40
2023-02-03T20:53:36.574Z,2.30
2023-02-03T20:58:36.568Z,2.50
2023-02-03T21:03:36.447Z,2.40
2023-02-03T21:08:36.374Z,2.20
2023-02-03T21:13:36.377Z,2.30
2023-02-03T21:18:36.281Z,2.70
2023-02-03T21:23:36.595Z,2.60
2023-02-03T21:28:36.167Z,2.40
2023-02-03T21:33:36.523Z,2.00
2023-02-03T21:38:36.065Z,2.30
2023-02-03T21:43:35.964Z,2.20
2023-02-03T21:48:35.801Z,1.90
2023-02-03T21:53:36.283Z,1.90
2023-02-03T21:58:35.754Z,1.90
2023-02-03T22:03:35.647Z,1.90
2023-02-03T22:08:35.580Z,2.30
2023-02-03T22:13:35.539Z,2.20
2023-02-03T22:18:35.499Z,2.20
2023-02-03T22:23:35.771Z,1.80
2023-02-03T22:28:35.419Z,2.10
2023-02-03T22:33:35.280Z,2.00
2023-02-03T22:38:35.197Z,1.90
2023-02-03T22:43:35.105Z,1.80
2023-02-03T22:48:35.887Z,1.70
2023-02-03T22:53:35.016Z,1.90
2023-02-03T22:58:34.907Z,2.10
2023-02-03T23:03:34.960Z,2.30
2023-02-03T23:08:34.798Z,1.60
2023-02-03T23:13:34.752Z,1.80
2023-02-03T23:18:34.665Z,1.90
2023-02-03T23:23:34.658Z,1.70
2023-02-03T23:28:34.608Z,1.50
2023-02-03T23:33:34.501Z,2.10
2023-02-03T23:38:34.405Z,2.30
2023-02-03T23:43:34.378Z,1.60
2023-02-03T23:48:34.289Z,2.00
2023-02-03T23:53:34.237Z,1.70
2023-02-03T23:58:34.164Z,2.80
